Details From ENGM - Oslo Gardermoen
To ENRY - Rygge
Flight Number -
Tags Routegen Generated
Created
Modified
Stats Distance 62 nm / 114 km
Max Altitude 300 ft / 91 m
Waypoints 5
Social Downloads 8
Likes 0
Share VATSIM

Download

Looking for another format? Having issues loading an existing format? Contact us
Advertisement - Login to hide

Notes

Departing runway 19 ENGM. Arriving runway 11 ENRY.

Route

ENGM +60.12_+011.03 +59.75_+011.04 +59.31_+011.06 ENRY

ID Type Via Altitude (ft/m) Position (lat/lon) Dist (leg/tot) Name
O ENGM APT - 300 / 91 60.18500 / 11.07374 - / 0 nm
+60.12_+011.03 DME - 300 / 91 60.11543 / 11.03370 4 / 4 nm
+59.75_+011.04 DME - 300 / 91 59.75366 / 11.04416 21 / 26 nm
+59.31_+011.06 DME - 300 / 91 59.30822 / 11.05757 26 / 52 nm
O ENRY APT - 0 / 0 59.37385 / 10.80460 8 / 61 nm

Altitude Profile

Advertisement - Login to hide

ENGM

Details ICAO ENGM (OSL)
Name Oslo Gardermoen
Region Norway
Timezone Europe/Oslo (UTC+1.0)
Stats Elevation 681 ft / 208 m (AMSL)
Location 60.194500° 11.098900°
Runways 2
Magnetic Variation 3.601° E

METAR

ENGM 190120Z 34005KT 290V040 CAVOK M01/M08 Q1014

Decode

TAF

TAF ENGM 182300Z 1900/1924 32005KT CAVOK BECMG 1910/1912 18010KT

Decode

Departure Runways

ID Width Length Bearing (true/mag) Surface Threshold Overrun Markings Lighting
01L 148 ft / 45 m 11,790 ft / 3,594 m 15.99° / 12.39° ASPHALT 0 ft / 0 m 486 ft / 148 m PREC-APP CENTERLINE EDGE THRESHOLD ALSF-I
01R 148 ft / 45 m 9,659 ft / 2,944 m 16.03° / 12.43° ASPHALT 0 ft / 0 m 492 ft / 150 m PREC-APP CENTERLINE EDGE THRESHOLD ALSF-II TDZ
19L 148 ft / 45 m 9,659 ft / 2,944 m 196.04° / 192.44° ASPHALT 0 ft / 0 m 495 ft / 151 m PREC-APP CENTERLINE EDGE THRESHOLD ALSF-I
19R 148 ft / 45 m 11,790 ft / 3,594 m 196.00° / 192.40° ASPHALT 0 ft / 0 m 492 ft / 150 m PREC-APP CENTERLINE EDGE THRESHOLD ALSF-II TDZ

ENRY

Details ICAO ENRY (RYG)
Name RYGGE
Region Norway
Timezone Europe/Oslo (UTC+1.0)
Stats Elevation 174 ft / 53 m (AMSL)
Location 59.378800° 10.785400°
Runways 1
Magnetic Variation 3.428° E

METAR

ENRY 190120Z AUTO 29003KT 250V340 9999NDV NCD 00/M07 Q1016

Decode

TAF

TAF ENRY 182300Z 1900/1924 34008KT CAVOK BECMG 1913/1915 21012KT

Decode

Destination Runways

ID Width Length Bearing (true/mag) Surface Threshold Overrun Markings Lighting
12 148 ft / 45 m 7,990 ft / 2,435 m 116.83° / 113.40° ASPHALT 0 ft / 0 m 898 ft / 274 m APP EDGE THRESHOLD
30 148 ft / 45 m 7,990 ft / 2,435 m 296.86° / 293.43° ASPHALT 0 ft / 0 m 898 ft / 274 m PREC-APP EDGE THRESHOLD

Approach Navaids

Runway Type Ident Frequency Range Bearing (true/mag) Slope Elevation
30 LOC-ILS RY 109.10 MHz 18 nm / 33 km 296.79° / 293.36 ° - 173 ft / 53 m (AMSL)
30 OM OM - - 296.84° / 293.41 ° - 174 ft / 53 m (AMSL)
30 GS RY 109.10 MHz 10 nm / 19 km 297.68° / 294.26 ° 3.10° 217 ft / 66 m (AMSL)
30 MM MM - - 296.84° / 293.41 ° - 174 ft / 53 m (AMSL)
30 DME RY 109.10 MHz 18 nm / 33 km - - 174 ft / 53 m (AMSL)

Popular Alternatives